createdAt,value
2018-06-20T00:01:20.568Z,6.87
2018-06-20T00:03:48.487Z,10.90
2018-06-20T00:06:16.303Z,7.33
2018-06-20T00:08:50.722Z,7.63
2018-06-20T00:11:20.291Z,7.67
2018-06-20T00:13:48.140Z,7.40
2018-06-20T00:16:16.021Z,7.23
2018-06-20T00:18:43.989Z,7.27
2018-06-20T00:21:12.041Z,7.20
2018-06-20T00:23:39.924Z,7.00
2018-06-20T00:26:07.816Z,7.20
2018-06-20T00:28:35.698Z,7.70
2018-06-20T00:31:03.616Z,9.80
2018-06-20T00:33:31.556Z,7.07
2018-06-20T00:35:59.479Z,8.80
2018-06-20T00:38:27.299Z,7.20
2018-06-20T00:40:55.157Z,7.70
2018-06-20T00:43:23.021Z,7.07
2018-06-20T00:45:50.817Z,9.57
2018-06-20T00:48:18.685Z,7.20
2018-06-20T00:50:46.510Z,6.77
2018-06-20T00:53:14.408Z,7.43
2018-06-20T00:55:59.590Z,7.20
2018-06-20T00:58:27.461Z,7.40
2018-06-20T01:00:55.366Z,8.50
2018-06-20T01:03:23.249Z,8.23
2018-06-20T01:05:51.166Z,9.40
2018-06-20T01:08:19.090Z,7.07
2018-06-20T01:10:46.940Z,6.03
2018-06-20T01:13:14.826Z,6.63
2018-06-20T01:15:42.726Z,7.87
2018-06-20T01:18:10.609Z,7.60
2018-06-20T01:20:38.641Z,7.00
2018-06-20T01:23:06.476Z,7.40
2018-06-20T01:25:34.349Z,8.80
2018-06-20T01:28:02.236Z,7.73
2018-06-20T01:30:30.141Z,9.87
2018-06-20T01:32:57.955Z,6.90
2018-06-20T01:35:25.873Z,7.37
2018-06-20T01:37:53.797Z,9.13
2018-06-20T01:40:21.735Z,7.57
2018-06-20T01:42:49.549Z,8.37
2018-06-20T01:45:17.489Z,9.80
2018-06-20T01:47:45.309Z,10.17
2018-06-20T01:50:13.244Z,8.47
2018-06-20T01:52:41.080Z,9.80
2018-06-20T01:55:08.949Z,8.10
2018-06-20T01:57:36.868Z,9.97
2018-06-20T02:00:05.297Z,9.07
2018-06-20T02:02:33.337Z,9.40
2018-06-20T02:05:01.221Z,7.97
2018-06-20T02:07:29.125Z,8.40
2018-06-20T02:09:56.992Z,10.20
2018-06-20T02:12:24.913Z,9.43
2018-06-20T02:14:52.773Z,6.70
2018-06-20T02:17:20.733Z,8.63
2018-06-20T02:19:48.654Z,9.97
2018-06-20T02:22:16.481Z,7.17
2018-06-20T02:24:44.346Z,7.57
2018-06-20T02:27:12.249Z,6.73
2018-06-20T02:29:40.113Z,8.17
2018-06-20T02:32:07.956Z,6.90
2018-06-20T02:34:35.827Z,7.60
2018-06-20T02:37:03.765Z,8.37
2018-06-20T02:39:31.609Z,8.07
2018-06-20T02:41:59.456Z,8.27
2018-06-20T02:44:27.393Z,8.93
2018-06-20T02:46:55.309Z,8.77
2018-06-20T02:49:23.153Z,8.80
2018-06-20T02:51:51.001Z,8.53
2018-06-20T02:54:18.981Z,7.43
2018-06-20T02:56:46.877Z,9.30
2018-06-20T02:59:14.694Z,8.03
2018-06-20T03:01:42.568Z,7.50
2018-06-20T03:04:10.457Z,7.47
2018-06-20T03:06:38.256Z,8.53
2018-06-20T03:09:43.229Z,8.83
2018-06-20T03:12:11.117Z,9.17
2018-06-20T03:14:38.957Z,7.60
2018-06-20T03:17:06.804Z,9.13
2018-06-20T03:19:34.637Z,7.70
2018-06-20T03:22:02.541Z,8.63
2018-06-20T03:24:30.400Z,7.47
2018-06-20T03:26:58.281Z,7.03
2018-06-20T03:29:26.191Z,7.67
2018-06-20T03:31:54.065Z,8.23
2018-06-20T03:34:22.005Z,7.73
2018-06-20T03:36:49.840Z,8.03
2018-06-20T03:39:17.693Z,8.47
2018-06-20T03:41:45.569Z,8.60
2018-06-20T03:44:13.462Z,8.10
2018-06-20T03:46:41.399Z,8.67
2018-06-20T03:49:09.412Z,9.87
2018-06-20T03:51:37.291Z,8.10
2018-06-20T03:54:05.303Z,7.70
2018-06-20T03:56:33.196Z,8.60
2018-06-20T03:59:01.069Z,10.57
2018-06-20T04:01:28.897Z,8.47
2018-06-20T04:03:56.803Z,9.17
2018-06-20T04:06:24.696Z,7.13
2018-06-20T04:08:52.509Z,9.67
2018-06-20T04:11:20.365Z,7.57
2018-06-20T04:13:48.191Z,5.97
2018-06-20T04:16:16.134Z,11.57
2018-06-20T04:18:44.565Z,8.43
2018-06-20T04:21:13.697Z,6.57
2018-06-20T04:23:41.609Z,6.30
2018-06-20T04:26:10.484Z,6.70
2018-06-20T04:28:38.557Z,7.40
2018-06-20T04:31:07.237Z,8.87
2018-06-20T04:33:36.190Z,8.83
2018-06-20T04:36:04.058Z,9.27
2018-06-20T04:38:31.955Z,6.50
2018-06-20T04:41:00.199Z,9.73
2018-06-20T04:43:28.018Z,8.47
2018-06-20T04:45:56.217Z,8.23
2018-06-20T04:48:24.331Z,8.83
2018-06-20T04:50:52.342Z,8.70
2018-06-20T04:53:20.217Z,7.73
2018-06-20T04:55:48.137Z,9.30
2018-06-20T04:58:16.417Z,7.97
2018-06-20T05:00:44.832Z,10.07
2018-06-20T05:03:13.013Z,12.57
2018-06-20T05:05:42.325Z,11.03
2018-06-20T05:08:10.419Z,6.43
2018-06-20T05:10:38.489Z,9.53
2018-06-20T05:13:06.585Z,7.13
2018-06-20T05:15:34.520Z,8.07
2018-06-20T05:18:02.748Z,6.67
2018-06-20T05:20:30.628Z,6.50
2018-06-20T05:22:58.537Z,9.10
2018-06-20T05:25:26.449Z,7.50
2018-06-20T05:27:54.308Z,7.30
2018-06-20T05:30:22.172Z,8.80
2018-06-20T05:32:50.029Z,6.40
2018-06-20T05:35:17.861Z,9.40
2018-06-20T05:37:45.746Z,10.03
2018-06-20T05:40:13.654Z,7.23
2018-06-20T05:42:41.564Z,8.40
2018-06-20T05:45:09.400Z,6.23
2018-06-20T05:47:37.321Z,8.80
2018-06-20T05:50:05.226Z,8.37
2018-06-20T05:52:34.081Z,7.17
2018-06-20T05:55:02.133Z,6.13
2018-06-20T05:57:29.969Z,7.63
2018-06-20T05:59:57.861Z,5.77
2018-06-20T06:02:25.665Z,6.73
2018-06-20T06:04:53.479Z,5.57
2018-06-20T06:07:21.305Z,7.03
2018-06-20T06:09:49.186Z,8.63
2018-06-20T06:12:16.999Z,6.27
2018-06-20T06:14:44.935Z,6.20
2018-06-20T06:17:12.923Z,6.10
2018-06-20T06:19:40.783Z,6.00
2018-06-20T06:22:08.629Z,8.03
2018-06-20T06:24:36.574Z,6.87
2018-06-20T06:27:04.553Z,6.83
2018-06-20T06:29:32.461Z,7.83
2018-06-20T06:32:00.378Z,7.47
2018-06-20T06:34:28.216Z,7.43
2018-06-20T06:36:56.209Z,6.07
2018-06-20T06:39:24.111Z,9.90
2018-06-20T06:41:53.366Z,8.63
2018-06-20T06:44:24.852Z,7.33
2018-06-20T06:46:53.070Z,7.70
2018-06-20T06:49:20.948Z,9.00
2018-06-20T06:51:48.866Z,6.80
2018-06-20T06:54:17.469Z,8.53
2018-06-20T06:56:45.408Z,9.80
2018-06-20T06:59:13.357Z,8.63
2018-06-20T07:01:41.186Z,8.60
2018-06-20T07:04:09.029Z,7.90
2018-06-20T07:06:36.981Z,7.57
2018-06-20T07:09:07.447Z,10.77
2018-06-20T07:11:35.362Z,11.30
2018-06-20T07:14:03.236Z,8.17
2018-06-20T07:16:31.208Z,9.03
2018-06-20T07:18:59.100Z,8.30
2018-06-20T07:21:27.265Z,6.70
2018-06-20T07:23:55.111Z,6.87
2018-06-20T07:26:23.009Z,7.10
2018-06-20T07:28:50.900Z,6.20
2018-06-20T07:31:18.769Z,8.30
2018-06-20T07:33:46.547Z,7.67
2018-06-20T07:36:14.482Z,6.37
2018-06-20T07:38:42.250Z,8.97
2018-06-20T07:41:10.200Z,6.03
2018-06-20T07:43:38.045Z,5.73
2018-06-20T07:46:06.164Z,5.70
2018-06-20T07:48:33.977Z,5.73
2018-06-20T07:51:01.909Z,5.67
2018-06-20T07:53:29.769Z,5.30
2018-06-20T07:55:57.730Z,6.67
2018-06-20T07:58:31.359Z,5.40
2018-06-20T08:01:04.952Z,6.37
2018-06-20T08:03:38.413Z,6.97
2018-06-20T08:06:12.081Z,5.03
2018-06-20T08:08:45.646Z,3.83
2018-06-20T08:11:19.237Z,5.50
2018-06-20T08:13:52.660Z,6.23
2018-06-20T08:16:26.198Z,4.33
2018-06-20T08:18:59.671Z,3.93
2018-06-20T08:21:27.565Z,4.07
2018-06-20T08:23:55.405Z,4.17
2018-06-20T08:26:23.287Z,4.27
2018-06-20T08:28:54.562Z,10.83
2018-06-20T08:31:22.489Z,4.07
2018-06-20T08:33:50.356Z,4.03
2018-06-20T08:36:18.248Z,4.00
2018-06-20T08:38:46.123Z,4.67
2018-06-20T08:41:13.961Z,3.90
2018-06-20T08:43:41.888Z,4.73
2018-06-20T08:46:09.768Z,4.97
2018-06-20T08:48:37.644Z,4.20
2018-06-20T08:51:05.694Z,3.50
2018-06-20T08:53:33.590Z,3.50
2018-06-20T08:56:01.498Z,4.93
2018-06-20T08:58:29.449Z,5.40
2018-06-20T09:01:00.752Z,3.33
2018-06-20T09:03:28.937Z,6.00
2018-06-20T09:06:02.609Z,3.83
2018-06-20T09:08:36.262Z,4.87
2018-06-20T09:11:13.097Z,3.27
2018-06-20T09:13:46.697Z,7.17
2018-06-20T09:16:20.089Z,3.47
2018-06-20T09:18:53.747Z,4.57
2018-06-20T09:21:21.674Z,4.23
2018-06-20T09:23:49.512Z,4.50
2018-06-20T09:26:17.549Z,3.47
2018-06-20T09:28:45.481Z,4.03
2018-06-20T09:31:13.341Z,5.80
2018-06-20T09:33:41.256Z,5.23
2018-06-20T09:36:09.801Z,5.57
2018-06-20T09:38:37.668Z,3.67
2018-06-20T09:41:05.465Z,3.80
2018-06-20T09:43:33.353Z,3.57
2018-06-20T09:46:01.233Z,4.70
2018-06-20T09:48:29.195Z,3.70
2018-06-20T09:50:58.310Z,5.07
2018-06-20T09:53:26.870Z,4.83
2018-06-20T09:55:54.761Z,4.10
2018-06-20T09:58:22.704Z,3.73
2018-06-20T10:00:56.305Z,6.07
2018-06-20T10:03:29.766Z,3.90
2018-06-20T10:06:03.507Z,3.57
2018-06-20T10:08:37.037Z,3.40
2018-06-20T10:11:10.850Z,5.43
2018-06-20T10:13:44.342Z,3.90
2018-06-20T10:16:12.321Z,3.33
2018-06-20T10:18:40.428Z,4.50
2018-06-20T10:21:08.393Z,3.70
2018-06-20T10:23:36.261Z,3.60
2018-06-20T10:26:04.162Z,4.10
2018-06-20T10:28:32.060Z,4.00
2018-06-20T10:30:59.861Z,5.57
2018-06-20T10:33:27.852Z,3.50
2018-06-20T10:35:55.689Z,4.53
2018-06-20T10:38:23.513Z,3.73
2018-06-20T10:40:51.364Z,3.63
2018-06-20T10:43:19.201Z,3.50
2018-06-20T10:45:52.854Z,4.00
2018-06-20T10:48:20.661Z,4.80
2018-06-20T10:50:48.705Z,3.65
2018-06-20T10:53:16.573Z,3.20
2018-06-20T10:55:44.476Z,3.62
2018-06-20T10:58:18.104Z,4.33
2018-06-20T11:00:51.841Z,2.85
2018-06-20T11:03:25.302Z,3.20
2018-06-20T11:05:58.809Z,3.92
2018-06-20T11:08:32.305Z,3.50
2018-06-20T11:11:05.828Z,3.47
2018-06-20T11:13:33.712Z,3.62
2018-06-20T11:16:01.621Z,2.83
2018-06-20T11:18:30.404Z,3.15
2018-06-20T11:20:59.041Z,6.25
2018-06-20T11:23:27.322Z,3.45
2018-06-20T11:25:55.512Z,2.72
2018-06-20T11:28:23.321Z,2.27
2018-06-20T11:30:51.188Z,2.67
2018-06-20T11:33:19.097Z,3.42
2018-06-20T11:35:46.970Z,3.95
2018-06-20T11:38:14.854Z,4.45
2018-06-20T11:40:42.693Z,2.70
2018-06-20T11:43:10.604Z,2.42
2018-06-20T11:45:44.365Z,2.83
2018-06-20T11:48:12.204Z,2.87
2018-06-20T11:50:40.074Z,3.50
2018-06-20T11:53:09.125Z,2.75
2018-06-20T11:55:39.436Z,3.25
2018-06-20T11:58:13.222Z,2.60
2018-06-20T12:00:46.937Z,3.25
2018-06-20T12:03:20.580Z,2.75
2018-06-20T12:06:53.184Z,3.70
2018-06-20T12:09:26.735Z,5.65
2018-06-20T12:12:00.253Z,3.45
2018-06-20T12:14:33.740Z,3.20
2018-06-20T12:17:01.180Z,3.37
2018-06-20T12:19:34.676Z,3.20
2018-06-20T12:22:08.169Z,2.95
2018-06-20T12:24:41.612Z,2.75
2018-06-20T12:27:15.133Z,3.35
2018-06-20T12:29:48.581Z,2.62
2018-06-20T12:32:22.074Z,3.77
2018-06-20T12:34:55.757Z,2.90
2018-06-20T12:37:29.237Z,3.15
2018-06-20T12:39:59.277Z,3.35
2018-06-20T12:42:32.851Z,3.30
2018-06-20T12:45:09.468Z,3.60
2018-06-20T12:47:43.039Z,3.15
2018-06-20T12:50:42.072Z,2.92
2018-06-20T12:53:09.969Z,3.12
2018-06-20T12:55:37.816Z,2.92
2018-06-20T12:58:05.713Z,4.20
2018-06-20T13:00:33.681Z,4.55
2018-06-20T13:03:01.592Z,4.15
2018-06-20T13:05:29.509Z,4.28
2018-06-20T13:07:57.450Z,3.15
2018-06-20T13:10:25.280Z,4.30
2018-06-20T13:12:53.168Z,4.78
2018-06-20T13:15:21.053Z,4.30
2018-06-20T13:17:48.882Z,3.05
2018-06-20T13:20:16.812Z,2.95
2018-06-20T13:22:44.638Z,3.92
2018-06-20T13:25:12.552Z,3.33
2018-06-20T13:27:45.473Z,2.95
2018-06-20T13:30:13.508Z,3.92
2018-06-20T13:32:47.137Z,3.80
2018-06-20T13:35:20.677Z,3.85
2018-06-20T13:37:54.359Z,4.10
2018-06-20T13:40:27.869Z,3.85
2018-06-20T13:43:01.655Z,3.30
2018-06-20T13:45:35.199Z,3.42
2018-06-20T13:48:08.744Z,4.55
2018-06-20T13:50:36.632Z,6.80
2018-06-20T13:53:04.529Z,2.90
2018-06-20T13:55:32.491Z,5.47
2018-06-20T13:58:00.357Z,5.93
2018-06-20T14:00:28.531Z,5.70
2018-06-20T14:02:56.456Z,3.37
2018-06-20T14:05:24.422Z,4.27
2018-06-20T14:07:52.235Z,3.97
2018-06-20T14:10:20.173Z,3.23
2018-06-20T14:12:47.998Z,9.70
2018-06-20T14:15:15.880Z,3.83
2018-06-20T14:17:43.788Z,3.40
2018-06-20T14:20:17.540Z,3.93
2018-06-20T14:22:45.482Z,5.40
2018-06-20T14:25:14.016Z,3.60
2018-06-20T14:27:42.045Z,5.30
2018-06-20T14:30:10.017Z,3.37
2018-06-20T14:32:43.486Z,4.37
2018-06-20T14:35:17.255Z,4.63
2018-06-20T14:37:50.801Z,3.87
2018-06-20T14:40:28.346Z,3.57
2018-06-20T14:43:02.150Z,4.20
2018-06-20T14:45:35.690Z,5.27
2018-06-20T14:48:03.543Z,3.47
2018-06-20T14:50:31.448Z,3.83
2018-06-20T14:52:59.329Z,3.77
2018-06-20T14:55:27.199Z,3.57
2018-06-20T14:57:54.997Z,4.00
2018-06-20T15:00:22.944Z,3.80
2018-06-20T15:02:50.797Z,3.90
2018-06-20T15:05:18.772Z,4.00
2018-06-20T15:07:46.692Z,4.20
2018-06-20T15:10:14.593Z,4.07
2018-06-20T15:12:42.409Z,7.63
2018-06-20T15:15:10.257Z,7.63
2018-06-20T15:17:38.118Z,4.77
2018-06-20T15:20:06.095Z,4.73
2018-06-20T15:22:39.705Z,3.80
2018-06-20T15:25:07.620Z,3.77
2018-06-20T15:27:41.229Z,3.97
2018-06-20T15:30:14.929Z,3.10
2018-06-20T15:32:48.497Z,3.93
2018-06-20T15:35:21.979Z,5.33
2018-06-20T15:37:55.520Z,5.07
2018-06-20T15:40:23.534Z,4.67
2018-06-20T15:42:51.413Z,2.37
2018-06-20T15:45:19.357Z,2.93
2018-06-20T15:47:47.220Z,3.93
2018-06-20T15:50:15.145Z,2.73
2018-06-20T15:52:43.038Z,2.83
2018-06-20T15:55:11.093Z,3.37
2018-06-20T15:57:38.996Z,2.70
2018-06-20T16:00:06.906Z,3.10
2018-06-20T16:02:34.768Z,4.27
2018-06-20T16:05:02.629Z,4.20
2018-06-20T16:07:30.520Z,9.47
2018-06-20T16:10:00.055Z,4.43
2018-06-20T16:12:27.845Z,6.67
2018-06-20T16:14:56.839Z,5.73
2018-06-20T16:17:24.997Z,3.63
2018-06-20T16:19:58.513Z,4.67
2018-06-20T16:22:32.018Z,5.10
2018-06-20T16:25:05.521Z,3.90
2018-06-20T16:27:39.125Z,2.70
2018-06-20T16:30:12.754Z,3.03
2018-06-20T16:32:40.620Z,3.23
2018-06-20T16:35:10.057Z,4.43
2018-06-20T16:37:38.582Z,3.63
2018-06-20T16:40:06.390Z,4.73
2018-06-20T16:42:34.285Z,3.50
2018-06-20T16:45:02.201Z,6.33
2018-06-20T16:47:30.177Z,5.10
2018-06-20T16:49:58.066Z,4.07
2018-06-20T16:52:25.980Z,2.90
2018-06-20T16:54:53.850Z,3.93
2018-06-20T16:57:21.676Z,7.77
2018-06-20T16:59:49.733Z,6.47
2018-06-20T17:02:23.456Z,2.37
2018-06-20T17:04:51.384Z,3.40
2018-06-20T17:07:19.352Z,6.83
2018-06-20T17:09:48.102Z,3.03
2018-06-20T17:12:21.795Z,2.80
2018-06-20T17:14:55.306Z,3.43
2018-06-20T17:17:28.801Z,3.63
2018-06-20T17:20:02.586Z,4.93
2018-06-20T17:22:36.093Z,3.93
2018-06-20T17:25:09.857Z,4.93
2018-06-20T17:27:37.797Z,2.97
2018-06-20T17:30:08.005Z,4.30
2018-06-20T17:32:36.212Z,5.07
2018-06-20T17:35:04.355Z,4.90
2018-06-20T17:37:32.385Z,2.50
2018-06-20T17:40:00.297Z,3.13
2018-06-20T17:42:28.465Z,2.80
2018-06-20T17:44:56.492Z,2.93
2018-06-20T17:47:24.305Z,3.53
2018-06-20T17:49:52.174Z,4.33
2018-06-20T17:52:20.384Z,3.67
2018-06-20T17:54:48.356Z,3.20
2018-06-20T17:57:17.042Z,3.47
2018-06-20T17:59:44.900Z,5.80
2018-06-20T18:02:12.873Z,3.80
2018-06-20T18:04:46.445Z,3.87
2018-06-20T18:07:20.085Z,8.80
2018-06-20T18:09:53.799Z,4.37
2018-06-20T18:12:27.742Z,3.43
2018-06-20T18:15:01.371Z,3.57
2018-06-20T18:17:29.213Z,3.40
2018-06-20T18:19:57.133Z,4.37
2018-06-20T18:22:24.936Z,3.57
2018-06-20T18:24:52.946Z,4.53
2018-06-20T18:27:20.834Z,3.50
2018-06-20T18:29:48.662Z,3.70
2018-06-20T18:32:16.502Z,5.30
2018-06-20T18:34:44.415Z,3.77
2018-06-20T18:37:12.225Z,3.67
2018-06-20T18:39:45.828Z,10.27
2018-06-20T18:42:13.633Z,12.80
2018-06-20T18:44:41.440Z,4.90
2018-06-20T18:47:10.693Z,6.77
2018-06-20T18:49:38.562Z,4.50
2018-06-20T18:52:06.453Z,3.57
2018-06-20T18:54:34.345Z,5.00
2018-06-20T18:57:02.375Z,4.37
2018-06-20T18:59:38.636Z,2.80
2018-06-20T19:02:12.246Z,3.23
2018-06-20T19:04:45.745Z,4.57
2018-06-20T19:07:19.542Z,4.63
2018-06-20T19:09:47.420Z,4.20
2018-06-20T19:12:15.249Z,4.40
2018-06-20T19:14:43.125Z,4.27
2018-06-20T19:17:11.073Z,4.00
2018-06-20T19:19:42.614Z,4.37
2018-06-20T19:22:10.534Z,4.73
2018-06-20T19:24:38.466Z,5.10
2018-06-20T19:27:06.409Z,3.33
2018-06-20T19:29:34.268Z,3.27
2018-06-20T19:32:02.191Z,5.40
2018-06-20T19:34:30.630Z,8.77
2018-06-20T19:36:58.613Z,4.73
2018-06-20T19:39:32.285Z,4.33
2018-06-20T19:42:00.173Z,5.43
2018-06-20T19:44:32.837Z,3.93
2018-06-20T19:47:03.019Z,3.57
2018-06-20T19:49:30.868Z,3.47
2018-06-20T19:51:58.810Z,3.53
2018-06-20T19:54:26.717Z,4.90
2018-06-20T19:56:54.653Z,7.03
2018-06-20T19:59:22.825Z,5.13
2018-06-20T20:01:51.385Z,6.13
2018-06-20T20:04:19.245Z,5.73
2018-06-20T20:06:47.096Z,5.45
2018-06-20T20:09:15.018Z,4.53
2018-06-20T20:11:42.904Z,5.83
2018-06-20T20:14:10.790Z,4.87
2018-06-20T20:16:38.646Z,7.33
2018-06-20T20:19:06.685Z,5.87
2018-06-20T20:21:35.329Z,5.43
2018-06-20T20:24:03.718Z,4.77
2018-06-20T20:26:31.818Z,3.87
2018-06-20T20:29:00.457Z,5.13
2018-06-20T20:31:34.196Z,6.17
2018-06-20T20:34:02.038Z,11.97
2018-06-20T20:36:29.847Z,14.63
2018-06-20T20:38:57.878Z,5.40
2018-06-20T20:41:32.765Z,7.30
2018-06-20T20:44:08.790Z,4.40
2018-06-20T20:46:42.015Z,5.20
2018-06-20T20:49:14.605Z,5.40
2018-06-20T20:51:52.301Z,5.87
2018-06-20T20:54:20.237Z,5.70
2018-06-20T20:56:51.032Z,6.20
2018-06-20T20:59:18.919Z,5.13
2018-06-20T21:01:46.833Z,5.40
2018-06-20T21:04:14.710Z,4.70
2018-06-20T21:06:42.741Z,7.07
2018-06-20T21:09:11.021Z,6.63
2018-06-20T21:11:38.923Z,5.30
2018-06-20T21:14:07.784Z,6.90
2018-06-20T21:16:35.638Z,6.67
2018-06-20T21:19:03.619Z,5.97
2018-06-20T21:21:31.505Z,5.60
2018-06-20T21:23:59.432Z,5.83
2018-06-20T21:26:33.432Z,7.27
2018-06-20T21:29:01.562Z,6.57
2018-06-20T21:31:29.457Z,5.63
2018-06-20T21:33:57.318Z,8.90
2018-06-20T21:36:25.149Z,10.43
2018-06-20T21:38:52.947Z,7.50
2018-06-20T21:41:20.819Z,9.57
2018-06-20T21:43:48.752Z,6.53
2018-06-20T21:46:16.612Z,6.27
2018-06-20T21:48:44.542Z,5.77
2018-06-20T21:51:12.485Z,5.13
2018-06-20T21:53:40.358Z,9.53
2018-06-20T21:56:08.250Z,7.00
2018-06-20T21:58:36.053Z,10.17
2018-06-20T22:01:03.958Z,9.03
2018-06-20T22:03:31.815Z,8.80
2018-06-20T22:05:59.682Z,8.87
2018-06-20T22:08:27.541Z,7.73
2018-06-20T22:10:55.428Z,10.97
2018-06-20T22:13:23.358Z,10.63
2018-06-20T22:15:51.361Z,9.03
2018-06-20T22:18:19.251Z,8.00
2018-06-20T22:20:47.137Z,7.77
2018-06-20T22:23:15.006Z,7.40
2018-06-20T22:25:42.899Z,9.63
2018-06-20T22:28:10.815Z,9.33
2018-06-20T22:30:38.676Z,9.67
2018-06-20T22:33:06.505Z,9.97
2018-06-20T22:35:34.485Z,8.30
2018-06-20T22:38:02.488Z,8.67
2018-06-20T22:40:30.635Z,9.97
2018-06-20T22:42:58.612Z,9.17
2018-06-20T22:45:26.573Z,8.80
2018-06-20T22:47:54.729Z,7.80
2018-06-20T22:50:22.705Z,9.53
2018-06-20T22:52:50.647Z,7.97
2018-06-20T22:55:18.592Z,7.23
2018-06-20T22:57:46.571Z,12.40
2018-06-20T23:00:14.557Z,9.07
2018-06-20T23:02:42.433Z,8.50
2018-06-20T23:05:10.351Z,8.30
2018-06-20T23:07:38.349Z,7.97
2018-06-20T23:10:06.360Z,8.97
2018-06-20T23:12:34.297Z,9.07
2018-06-20T23:15:02.308Z,6.73
2018-06-20T23:17:30.258Z,7.43
2018-06-20T23:19:58.213Z,6.93
2018-06-20T23:22:26.158Z,7.20
2018-06-20T23:24:54.047Z,7.50
2018-06-20T23:27:21.922Z,9.27
2018-06-20T23:29:49.810Z,8.70
2018-06-20T23:32:17.750Z,7.10
2018-06-20T23:34:45.674Z,8.60
2018-06-20T23:37:13.709Z,8.47
2018-06-20T23:39:42.730Z,10.53
2018-06-20T23:42:10.917Z,9.40
2018-06-20T23:44:38.881Z,8.30
2018-06-20T23:47:06.893Z,8.50
2018-06-20T23:49:34.813Z,9.73
2018-06-20T23:52:02.683Z,8.60
2018-06-20T23:54:30.705Z,8.47
2018-06-20T23:56:58.708Z,8.33
2018-06-20T23:59:26.676Z,12.70
